Date,TemperatureHighF,TemperatureAvgF,TemperatureLowF,DewpointHighF,DewpointAvgF,DewpointLowF,HumidityHigh,HumidityAvg,HumidityLow,PressureMaxIn,PressureMinIn,WindSpeedMaxMPH,WindSpeedAvgMPH,GustSpeedMaxMPH,PrecipitationSumIn
2013-2-1,61.5,51.0,41.7,48.2,43.6,39.8,93,78,57,30.23,30.21,2,1,5,0.01
2013-2-2,42.9,42.8,42.5,40.7,40.5,40.3,92,92,92,30.25,30.24,0,0,0,0.00
2013-2-3,58.5,49.9,43.2,45.6,42.8,39.8,89,77,62,30.27,30.24,3,0,5,0.00
2013-2-4,47.9,46.7,45.7,46.0,44.4,42.9,94,92,90,30.20,30.12,0,0,1,0.00
2013-2-5,49.9,48.2,46.0,43.3,42.2,40.9,90,80,75,30.17,30.12,1,0,4,0.00
2013-2-6,46.4,41.1,39.8,40.6,38.2,37.5,93,90,80,30.17,30.15,0,0,2,0.00
2013-2-7,55.6,48.4,41.6,48.9,42.9,38.3,93,82,57,30.15,30.05,2,0,2,0.16
2013-2-8,51.4,47.4,42.2,44.3,42.5,40.9,95,83,69,30.03,30.02,2,1,2,0.04
2013-2-10,42.4,40.4,39.4,39.1,37.5,36.2,91,89,88,30.09,30.07,0,0,0,0.00
2013-2-11,39.1,39.0,38.9,36.0,35.8,35.6,89,88,88,30.09,30.09,0,0,0,0.00
2013-2-12,56.0,42.7,36.0,45.6,37.9,33.9,93,84,60,30.37,30.30,3,0,3,0.01
2013-2-14,68.6,68.4,68.3,46.2,43.5,42.5,45,41,39,30.17,30.17,3,2,6,0.01
2013-2-15,51.7,46.0,41.7,42.3,40.8,39.7,93,83,69,30.27,30.22,1,1,3,0.00
2013-2-16,45.2,44.8,44.4,41.3,40.6,40.1,86,85,84,30.23,30.21,1,0,3,0.00
2013-2-17,60.4,44.4,38.9,47.7,40.3,37.0,94,87,59,30.04,29.97,0,0,2,0.01
2013-2-18,52.8,47.0,36.9,44.2,40.9,35.6,97,80,63,30.05,29.98,3,1,10,0.01
2013-2-19,46.6,43.1,38.6,41.1,37.4,33.2,93,81,72,29.97,29.77,2,0,6,0.27
2013-2-20,60.9,53.3,38.3,41.1,38.0,32.9,82,58,45,29.99,29.87,3,2,10,0.00
2013-2-23,48.6,48.2,47.7,36.6,33.8,31.4,63,57,53,30.24,30.23,2,2,4,0.00
2013-2-24,62.4,53.5,46.2,34.9,27.8,21.5,56,38,32,30.25,30.17,4,2,5,0.00
2013-2-26,64.6,63.5,62.6,31.5,31.1,30.7,31,30,28,30.20,30.18,2,2,2,0.00
2013-2-27,51.9,50.4,49.2,44.9,44.4,44.1,83,80,77,30.38,30.36,0,0,6,0.00
2013-2-28,66.8,53.3,48.9,52.6,47.0,44.1,90,80,59,30.44,30.38,4,1,4,0.00